createdAt,value
2018-02-07T08:48:30.884Z,0.53
2018-02-07T08:49:29.749Z,0.47
2018-02-07T08:50:30.185Z,0.57
2018-02-07T08:51:31.010Z,0.64
2018-02-07T08:52:30.874Z,0.69
2018-02-07T08:53:31.416Z,0.64
2018-02-07T08:54:32.379Z,0.66
2018-02-07T08:55:32.134Z,0.69
2018-02-07T08:56:32.305Z,0.75
2018-02-07T08:57:31.831Z,0.82
2018-02-07T08:58:32.193Z,0.96
2018-02-07T08:59:32.048Z,0.92
2018-02-07T09:00:32.589Z,1.07
2018-02-07T09:01:31.901Z,1.07
2018-02-07T09:02:32.393Z,1.11
2018-02-07T09:03:32.585Z,1.21
2018-02-07T09:04:32.910Z,1.33
2018-02-07T09:05:32.852Z,1.47
2018-02-07T09:06:32.822Z,1.56
2018-02-07T09:07:33.127Z,1.54
2018-02-07T09:08:33.313Z,1.68
2018-02-07T09:09:33.174Z,1.72
2018-02-07T09:10:33.337Z,1.87
2018-02-07T09:11:33.904Z,1.89
2018-02-07T09:12:34.066Z,2.04
2018-02-07T09:13:34.854Z,2.12
2018-02-07T09:14:33.560Z,2.24
2018-02-07T09:15:33.802Z,2.22
2018-02-07T09:16:34.888Z,2.2
2018-02-07T09:17:33.864Z,2.08
2018-02-07T09:18:34.007Z,2.04
2018-02-07T09:19:33.655Z,1.83
2018-02-07T09:20:33.857Z,1.74
2018-02-07T09:21:34.698Z,1.54
2018-02-07T09:22:34.599Z,1.4
2018-02-07T09:23:34.820Z,1.4
2018-02-07T09:24:35.438Z,1.48
2018-02-07T09:25:35.523Z,1.78
2018-02-07T09:26:35.850Z,2.29
2018-02-07T09:27:34.979Z,3.2
2018-02-07T09:28:35.742Z,3.6
2018-02-07T09:29:35.642Z,3.93
2018-02-07T09:30:35.551Z,4.33
2018-02-07T09:31:35.854Z,4.87
2018-02-07T09:32:35.603Z,5.69
2018-02-07T09:33:35.837Z,6.18
2018-02-07T09:34:35.862Z,6.2
2018-02-07T09:35:36.775Z,6.09
2018-02-07T09:36:36.168Z,5.99
2018-02-07T09:37:36.446Z,6.18
2018-02-07T09:38:36.784Z,6.14
2018-02-07T09:39:36.824Z,5.59
2018-02-07T09:40:36.759Z,5.03
2018-02-07T09:41:37.359Z,4.97
2018-02-07T09:42:37.053Z,5.31
2018-02-07T09:43:37.414Z,5.98
2018-02-07T09:44:37.396Z,6.24
2018-02-07T09:45:37.893Z,6.03
2018-02-07T09:46:38.382Z,6.42
2018-02-07T09:47:37.986Z,6.37
2018-02-07T09:48:37.262Z,6.4
2018-02-07T09:49:37.603Z,6.6
2018-02-07T09:50:37.566Z,6.88
2018-02-07T09:51:37.917Z,7.54
2018-02-07T09:52:37.913Z,8.47
2018-02-07T09:53:38.011Z,9.12
2018-02-07T09:54:38.405Z,9.84
2018-02-07T09:55:37.717Z,10.35
2018-02-07T09:56:38.734Z,10.84
2018-02-07T09:57:38.366Z,11.18
2018-02-07T09:58:38.981Z,11.35
2018-02-07T09:59:39.611Z,11.59
2018-02-07T10:00:39.236Z,11.95
2018-02-07T10:01:39.006Z,12.18
2018-02-07T10:02:39.237Z,12.52
2018-02-07T10:03:39.393Z,12.73
2018-02-07T10:04:39.529Z,13.11
2018-02-07T10:05:39.224Z,13.42
2018-02-07T10:06:39.237Z,13.53
2018-02-07T10:07:39.865Z,13.62
2018-02-07T10:08:40.311Z,13.94
2018-02-07T10:09:40.260Z,14.26
2018-02-07T10:10:40.684Z,14.57
2018-02-07T10:11:41.158Z,14.66
2018-02-07T10:12:41.694Z,14.71
2018-02-07T10:13:41.019Z,14.74
2018-02-07T10:14:41.811Z,14.61
2018-02-07T10:15:41.745Z,14.51
2018-02-07T10:16:41.986Z,14.48
2018-02-07T10:17:41.826Z,14.67
2018-02-07T10:18:42.043Z,14.8
2018-02-07T10:19:41.636Z,14.95
2018-02-07T10:20:42.182Z,14.94
2018-02-07T10:21:42.448Z,14.7
2018-02-07T10:22:42.616Z,14.36
2018-02-07T10:23:42.641Z,14.24
2018-02-07T10:24:42.098Z,14.2
2018-02-07T10:25:41.867Z,14.09
2018-02-07T10:26:42.348Z,13.94
2018-02-07T10:27:42.404Z,14.05
2018-02-07T10:28:42.144Z,14.16
2018-02-07T10:29:42.178Z,14.2
2018-02-07T10:30:42.653Z,14.46
2018-02-07T10:31:42.413Z,14.77
2018-02-07T10:32:42.640Z,14.61
2018-02-07T10:33:43.112Z,14.16
2018-02-07T10:34:42.860Z,13.44
2018-02-07T10:35:42.933Z,12.56
2018-02-07T10:36:43.184Z,11.82
2018-02-07T10:37:42.955Z,11.2
2018-02-07T10:38:43.331Z,10.73
2018-02-07T10:39:43.273Z,10.33
2018-02-07T10:40:42.776Z,9.89
2018-02-07T10:41:43.368Z,9.59
2018-02-07T10:42:43.378Z,9.35
2018-02-07T10:43:43.374Z,9.19
2018-02-07T10:44:42.878Z,9.04
2018-02-07T10:45:43.429Z,9.03
2018-02-07T10:46:43.462Z,8.8
2018-02-07T10:47:43.182Z,8.68
2018-02-07T10:48:43.554Z,8.49
2018-02-07T10:49:44.255Z,8.32
2018-02-07T10:50:44.707Z,8.06
2018-02-07T10:51:44.608Z,7.8
2018-02-07T10:52:43.753Z,7.59
2018-02-07T10:53:44.832Z,7.23
2018-02-07T10:54:44.900Z,7.03
2018-02-07T10:55:44.035Z,6.6
2018-02-07T10:56:44.282Z,6.37
2018-02-07T10:57:44.418Z,6.09
2018-02-07T10:58:44.564Z,5.84
2018-02-07T10:59:44.347Z,5.57
2018-02-07T11:00:44.060Z,5.44
2018-02-07T11:01:44.259Z,5.05
2018-02-07T11:02:44.262Z,4.88
2018-02-07T11:03:44.280Z,4.72
2018-02-07T11:04:44.028Z,4.74
2018-02-07T11:05:44.736Z,4.76
2018-02-07T11:06:45.382Z,4.75
2018-02-07T11:07:45.305Z,4.76
2018-02-07T11:08:45.217Z,4.72
2018-02-07T11:09:45.914Z,4.76
2018-02-07T11:10:45.582Z,4.71
2018-02-07T11:11:46.213Z,4.85
2018-02-07T11:12:46.051Z,4.76
2018-02-07T11:13:46.283Z,4.75
2018-02-07T11:14:45.938Z,4.74
2018-02-07T11:15:46.572Z,4.65
2018-02-07T11:16:46.566Z,4.46
2018-02-07T11:17:46.638Z,4.36
2018-02-07T11:18:46.356Z,4.36
2018-02-07T11:19:46.876Z,4.36
2018-02-07T11:20:46.982Z,4.3
2018-02-07T11:21:46.912Z,4.26
2018-02-07T11:22:46.889Z,4.15
2018-02-07T11:23:46.928Z,4
2018-02-07T11:24:46.669Z,3.96
2018-02-07T11:25:47.068Z,3.9
2018-02-07T11:26:47.366Z,3.79
2018-02-07T11:27:47.565Z,3.75
2018-02-07T11:28:48.562Z,3.71
2018-02-07T11:29:47.875Z,3.71
2018-02-07T11:30:48.214Z,3.72
2018-02-07T11:31:48.081Z,3.64
2018-02-07T11:32:48.282Z,3.69
2018-02-07T11:33:48.740Z,3.63
2018-02-07T11:34:47.903Z,3.64
2018-02-07T11:35:48.355Z,3.66
2018-02-07T11:36:49.887Z,3.72
2018-02-07T11:37:49.976Z,3.79
2018-02-07T11:38:50.108Z,3.71
2018-02-07T11:39:49.128Z,3.66
2018-02-07T11:40:50.718Z,3.64
2018-02-07T11:41:49.757Z,3.64
2018-02-07T11:42:49.643Z,3.63
2018-02-07T11:43:50.376Z,3.61
2018-02-07T11:44:50.155Z,3.61
2018-02-07T11:45:50.065Z,3.69
2018-02-07T11:46:50.235Z,3.6
2018-02-07T11:47:49.974Z,3.53
2018-02-07T11:48:49.839Z,3.63
2018-02-07T11:49:50.520Z,3.54
2018-02-07T11:50:50.739Z,3.51
2018-02-07T11:51:50.513Z,3.56
2018-02-07T11:52:50.333Z,3.51
2018-02-07T11:53:50.786Z,3.53
2018-02-07T11:54:50.773Z,3.51
2018-02-07T11:55:50.670Z,3.48
2018-02-07T11:56:49.905Z,3.53
2018-02-07T11:57:50.550Z,3.54
2018-02-07T11:58:50.195Z,3.66
2018-02-07T11:59:50.463Z,3.66
2018-02-07T12:00:51.454Z,3.67
2018-02-07T12:01:50.426Z,3.69
2018-02-07T12:02:50.838Z,3.58
2018-02-07T12:03:50.813Z,3.64
2018-02-07T12:04:51.889Z,3.63
2018-02-07T12:05:52.018Z,3.63
2018-02-07T12:06:51.736Z,3.71
2018-02-07T12:07:51.321Z,3.72
2018-02-07T12:08:52.082Z,3.84
2018-02-07T12:09:51.782Z,3.84
2018-02-07T12:10:51.724Z,3.82
2018-02-07T12:11:51.735Z,3.76
2018-02-07T12:12:52.001Z,3.81
2018-02-07T12:13:52.125Z,3.71
2018-02-07T12:14:52.447Z,3.72
2018-02-07T12:15:52.699Z,3.72
2018-02-07T12:16:52.564Z,3.66
2018-02-07T12:17:52.304Z,3.63
2018-02-07T12:18:52.917Z,3.53
2018-02-07T12:19:53.853Z,3.53
2018-02-07T12:20:52.499Z,3.63
2018-02-07T12:21:52.788Z,3.72
2018-02-07T12:22:53.099Z,3.74
2018-02-07T12:23:53.573Z,3.75
2018-02-07T12:24:52.847Z,3.79
2018-02-07T12:25:53.129Z,3.85
2018-02-07T12:26:52.910Z,3.9
2018-02-07T12:27:53.530Z,3.93
2018-02-07T12:28:53.535Z,3.94
2018-02-07T12:29:53.747Z,3.9
2018-02-07T12:30:54.091Z,3.93
2018-02-07T12:31:54.076Z,4.14
2018-02-07T12:32:53.524Z,4.2
2018-02-07T12:33:53.779Z,4.15
2018-02-07T12:34:54.193Z,4.17
2018-02-07T12:35:54.033Z,4.21
2018-02-07T12:36:54.424Z,4.18
2018-02-07T12:37:54.500Z,4.14
2018-02-07T12:38:54.526Z,4.07
2018-02-07T12:39:54.623Z,3.92
2018-02-07T12:40:55.197Z,3.9
2018-02-07T12:41:54.732Z,3.69
2018-02-07T12:42:54.773Z,3.6
2018-02-07T12:43:55.123Z,3.63
2018-02-07T12:44:55.099Z,3.56
2018-02-07T12:45:55.095Z,3.46
2018-02-07T12:46:55.179Z,3.42
2018-02-07T12:47:55.514Z,3.35
2018-02-07T12:48:55.928Z,3.17
2018-02-07T12:49:56.514Z,3.03
2018-02-07T12:50:56.641Z,3.02
2018-02-07T12:51:56.211Z,2.87
2018-02-07T12:52:56.511Z,2.76
2018-02-07T12:53:56.578Z,2.67
2018-02-07T12:54:56.302Z,2.55
2018-02-07T12:55:56.721Z,2.6
2018-02-07T12:56:56.761Z,2.58
2018-02-07T12:57:57.232Z,2.58
2018-02-07T12:58:56.559Z,2.55
2018-02-07T12:59:56.978Z,2.62
2018-02-07T13:00:57.255Z,2.62
2018-02-07T13:01:57.201Z,2.62
2018-02-07T13:02:57.238Z,2.58
2018-02-07T13:03:57.399Z,2.54
2018-02-07T13:04:57.479Z,2.63
2018-02-07T13:05:56.858Z,2.58
2018-02-07T13:06:57.902Z,2.59
2018-02-07T13:07:57.447Z,2.54
2018-02-07T13:08:57.392Z,2.49
2018-02-07T13:09:57.717Z,2.51
2018-02-07T13:10:58.171Z,2.51
2018-02-07T13:11:58.415Z,2.49
2018-02-07T13:12:57.885Z,2.44
2018-02-07T13:13:57.697Z,2.41
2018-02-07T13:14:58.067Z,2.44
2018-02-07T13:15:57.923Z,2.3
2018-02-07T13:16:58.224Z,2.33
2018-02-07T13:17:58.133Z,2.31
2018-02-07T13:18:58.430Z,2.41
2018-02-07T13:19:58.703Z,2.31
2018-02-07T13:20:59.261Z,2.34
2018-02-07T13:21:58.688Z,2.42
2018-02-07T13:22:58.689Z,2.42
2018-02-07T13:23:59.645Z,2.48
2018-02-07T13:24:59.471Z,2.47
2018-02-07T13:25:59.889Z,2.58
2018-02-07T13:27:00.202Z,2.58
2018-02-07T13:28:00.186Z,2.69
2018-02-07T13:28:59.810Z,2.73
2018-02-07T13:30:00.666Z,2.81
2018-02-07T13:31:00.365Z,2.77
2018-02-07T13:32:00.121Z,2.84
2018-02-07T13:33:00.539Z,2.87
2018-02-07T13:34:00.684Z,2.96
2018-02-07T13:35:01.204Z,2.87
2018-02-07T13:36:02.120Z,2.99
2018-02-07T13:37:02.051Z,2.88
2018-02-07T13:38:01.837Z,2.81
2018-02-07T13:39:01.339Z,2.88
2018-02-07T13:40:01.619Z,2.81
2018-02-07T13:41:02.342Z,2.8
2018-02-07T13:42:02.281Z,2.77
2018-02-07T13:43:03.090Z,2.69
2018-02-07T13:44:02.889Z,2.7
2018-02-07T13:45:02.708Z,2.69
2018-02-07T13:46:02.678Z,2.7
2018-02-07T13:47:03.070Z,2.62
2018-02-07T13:48:03.027Z,2.48
2018-02-07T13:49:03.029Z,2.41
2018-02-07T13:50:02.876Z,2.3
2018-02-07T13:51:03.974Z,2.3
2018-02-07T13:52:03.843Z,2.24
2018-02-07T13:53:04.190Z,2.11
2018-02-07T13:54:04.292Z,1.98
2018-02-07T13:55:04.788Z,1.92
2018-02-07T13:56:04.669Z,1.89
2018-02-07T13:57:04.707Z,1.83
2018-02-07T13:58:04.858Z,1.84
2018-02-07T13:59:05.103Z,1.87
2018-02-07T14:01:05.559Z,1.89
2018-02-07T14:02:05.402Z,1.84
2018-02-07T14:03:05.282Z,1.86
2018-02-07T14:04:05.327Z,1.9
2018-02-07T14:05:05.234Z,1.9
2018-02-07T14:06:05.507Z,1.78
2018-02-07T14:07:05.725Z,1.74
2018-02-07T14:08:05.986Z,1.72
2018-02-07T14:09:05.768Z,1.74
2018-02-07T14:10:06.322Z,1.68
2018-02-07T14:11:06.015Z,1.57
2018-02-07T14:12:05.747Z,1.66
2018-02-07T14:13:06.105Z,1.64
2018-02-07T14:14:06.275Z,1.72
2018-02-07T14:15:06.540Z,1.72
2018-02-07T14:16:06.822Z,1.84
2018-02-07T14:17:07.086Z,1.83
2018-02-07T14:18:07.634Z,1.89
2018-02-07T14:19:07.609Z,1.74
2018-02-07T14:20:07.460Z,1.79
2018-02-07T14:21:07.439Z,1.74
2018-02-07T14:22:07.920Z,1.71
2018-02-07T14:23:07.819Z,1.71
2018-02-07T14:24:08.011Z,1.69
2018-02-07T14:25:08.405Z,1.84
2018-02-07T14:26:08.299Z,1.84
2018-02-07T14:27:08.337Z,1.79
2018-02-07T14:28:08.860Z,1.84
2018-02-07T14:29:08.897Z,1.89
2018-02-07T14:30:08.824Z,1.86
2018-02-07T14:31:08.670Z,1.86
2018-02-07T14:32:08.911Z,1.89
2018-02-07T14:33:08.658Z,1.87
2018-02-07T14:34:08.954Z,1.86
2018-02-07T14:35:09.451Z,1.78
2018-02-07T14:36:09.148Z,1.87
2018-02-07T14:37:09.433Z,1.79
2018-02-07T14:38:08.941Z,1.82
2018-02-07T14:39:09.260Z,1.83
2018-02-07T14:40:09.759Z,1.84
2018-02-07T14:41:09.519Z,1.74
2018-02-07T14:42:09.011Z,1.68
2018-02-07T14:43:09.502Z,1.58
2018-02-07T14:44:09.701Z,1.61
2018-02-07T14:45:10.167Z,1.65
2018-02-07T14:46:09.924Z,1.61
2018-02-07T14:47:10.389Z,1.6
2018-02-07T14:48:10.874Z,1.69
2018-02-07T14:49:10.853Z,1.61
2018-02-07T14:50:11.574Z,1.64
2018-02-07T14:51:11.526Z,1.54
2018-02-07T14:52:12.104Z,1.56
2018-02-07T14:53:11.820Z,1.46
2018-02-07T14:54:12.606Z,1.42
2018-02-07T14:55:12.332Z,1.53
2018-02-07T14:56:12.762Z,1.47
2018-02-07T14:57:12.963Z,1.53
2018-02-07T14:58:13.272Z,1.47
2018-02-07T14:59:13.005Z,1.32
2018-02-07T15:00:12.708Z,1.33
2018-02-07T15:01:13.815Z,1.42
2018-02-07T15:02:13.448Z,1.38
2018-02-07T15:03:13.606Z,1.39
2018-02-07T15:04:13.937Z,1.38
2018-02-07T15:05:14.403Z,1.33
2018-02-07T15:06:14.803Z,1.33
2018-02-07T15:07:14.669Z,1.3
2018-02-07T15:08:15.105Z,1.28
2018-02-07T15:09:14.870Z,1.26
2018-02-07T15:10:15.441Z,1.12
2018-02-07T15:11:15.385Z,1.12
2018-02-07T15:12:15.464Z,1.14
2018-02-07T15:13:15.757Z,1.22
2018-02-07T15:14:15.873Z,1.1
2018-02-07T15:15:15.712Z,1.1
2018-02-07T15:16:16.029Z,1.08
2018-02-07T15:17:16.588Z,1.04
2018-02-07T15:18:16.507Z,1.04
2018-02-07T15:19:16.673Z,1.03
2018-02-07T15:20:16.387Z,1.03
2018-02-07T15:21:17.075Z,1.04
2018-02-07T15:22:16.812Z,1
2018-02-07T15:23:16.660Z,1.03
2018-02-07T15:24:16.873Z,1.04
2018-02-07T15:25:17.121Z,1.03
2018-02-07T15:26:17.537Z,1.02
2018-02-07T15:27:17.734Z,1.02
2018-02-07T15:28:18.023Z,1
2018-02-07T15:29:18.416Z,0.92
2018-02-07T15:30:18.585Z,0.84
2018-02-07T15:31:18.712Z,0.78
2018-02-07T15:32:19.067Z,0.75
2018-02-07T15:33:18.817Z,0.74
2018-02-07T15:34:18.534Z,0.72
2018-02-07T15:35:19.387Z,0.72
2018-02-07T15:36:18.691Z,0.64
2018-02-07T15:37:19.257Z,0.64
2018-02-07T15:38:19.700Z,0.53
2018-02-07T15:39:20.123Z,0.56
2018-02-07T15:40:19.964Z,0.41
2018-02-07T15:41:19.984Z,0.34
2018-02-07T15:42:20.273Z,0.38
2018-02-07T15:43:20.056Z,0.34
2018-02-07T15:44:20.409Z,0.41
2018-02-07T15:45:20.251Z,0.32
2018-02-07T15:46:20.919Z,0.26
2018-02-07T15:47:20.689Z,0.24
2018-02-07T15:48:21.103Z,0.2
2018-02-07T15:49:20.825Z,0.09
2018-02-07T15:50:20.823Z,0.16
2018-02-07T15:51:21.129Z,0.06
2018-02-07T15:52:21.054Z,0.06
2018-02-07T15:53:21.788Z,-0.04
2018-02-07T15:54:21.696Z,-0.01
2018-02-07T15:55:22.310Z,-0.07
2018-02-07T15:56:22.193Z,-0.05
2018-02-07T15:57:22.348Z,-0.09
2018-02-07T15:58:21.960Z,-0.09
2018-02-07T15:59:21.706Z,-0.07
2018-02-07T16:00:22.419Z,-0.13
2018-02-07T16:01:22.407Z,-0.18
2018-02-07T16:02:22.090Z,-0.27
2018-02-07T16:03:22.303Z,-0.22
2018-02-07T16:04:22.442Z,-0.19
2018-02-07T16:05:22.732Z,-0.19
2018-02-07T16:06:22.794Z,-0.23
2018-02-07T16:07:23.795Z,-0.31
2018-02-07T16:08:23.900Z,-0.34
2018-02-07T16:09:23.208Z,-0.36
2018-02-07T16:10:23.426Z,-0.4
2018-02-07T16:11:22.848Z,-0.41
2018-02-07T16:12:22.599Z,-0.45
2018-02-07T16:13:22.694Z,-0.49
2018-02-07T16:14:23.055Z,-0.4
2018-02-07T16:15:22.732Z,-0.37
2018-02-07T16:16:24.138Z,-0.4
2018-02-07T16:17:24.051Z,-0.52
2018-02-07T16:18:23.751Z,-0.55
2018-02-07T16:19:23.736Z,-0.59
2018-02-07T16:20:23.452Z,-0.67
2018-02-07T16:21:23.777Z,-0.72
2018-02-07T16:22:23.742Z,-0.72
2018-02-07T16:23:23.794Z,-0.7
2018-02-07T16:24:24.285Z,-0.79
2018-02-07T16:25:23.978Z,-0.74
2018-02-07T16:26:24.515Z,-0.77
2018-02-07T16:27:24.283Z,-0.79
2018-02-07T16:28:24.618Z,-0.82
2018-02-07T16:29:24.899Z,-0.8
2018-02-07T16:30:25.973Z,-0.84
2018-02-07T16:31:25.827Z,-0.92
2018-02-07T16:32:25.946Z,-0.92
2018-02-07T16:33:25.225Z,-0.95
2018-02-07T16:34:25.929Z,-0.92
2018-02-07T16:35:26.571Z,-0.95
2018-02-07T16:36:26.232Z,-0.99
2018-02-07T16:37:25.905Z,-1.07
2018-02-07T16:38:26.419Z,-1.01
2018-02-07T16:39:26.057Z,-1.19
2018-02-07T16:40:27.046Z,-1.1
2018-02-07T16:41:26.524Z,-1.19
2018-02-07T16:42:27.099Z,-1.21
2018-02-07T16:43:27.139Z,-1.25
2018-02-07T16:44:26.853Z,-1.25
2018-02-07T16:45:27.095Z,-1.3
2018-02-07T16:46:27.376Z,-1.21
2018-02-07T16:47:27.619Z,-1.16
2018-02-07T16:48:27.949Z,-1.16
2018-02-07T16:49:27.761Z,-1.21
2018-02-07T16:50:28.517Z,-1.3
2018-02-07T16:51:28.413Z,-1.25
2018-02-07T16:52:28.686Z,-1.24
2018-02-07T16:53:28.779Z,-1.19
2018-02-07T16:54:29.113Z,-1.27
2018-02-07T16:55:29.388Z,-1.27
2018-02-07T16:56:29.174Z,-1.25
2018-02-07T16:57:29.421Z,-1.25
2018-02-07T16:58:29.178Z,-1.21
2018-02-07T16:59:29.441Z,-1.17
2018-02-07T17:00:29.755Z,-1.24
2018-02-07T17:01:29.892Z,-1.3
2018-02-07T17:02:30.132Z,-1.34
2018-02-07T17:03:30.292Z,-1.32
2018-02-07T17:04:30.348Z,-1.31
2018-02-07T17:05:30.375Z,-1.4
2018-02-07T17:06:30.642Z,-1.45
2018-02-07T17:07:30.105Z,-1.43
2018-02-07T17:08:31.046Z,-1.48
2018-02-07T17:09:31.400Z,-1.42
2018-02-07T17:10:31.326Z,-1.46
2018-02-07T17:11:30.947Z,-1.46
2018-02-07T17:12:30.949Z,-1.45
2018-02-07T17:13:30.927Z,-1.55
2018-02-07T17:14:30.994Z,-1.43
2018-02-07T17:15:31.050Z,-1.52
2018-02-07T17:16:31.510Z,-1.55
2018-02-07T17:17:31.216Z,-1.48
2018-02-07T17:18:32.042Z,-1.49
2018-02-07T17:19:32.317Z,-1.46
2018-02-07T17:20:31.765Z,-1.48
2018-02-07T17:21:31.700Z,-1.52
2018-02-07T17:22:31.350Z,-1.53
2018-02-07T17:23:31.904Z,-1.49
2018-02-07T17:24:31.432Z,-1.52
2018-02-07T17:25:31.374Z,-1.49
2018-02-07T17:26:31.594Z,-1.55
2018-02-07T17:27:31.761Z,-1.52
2018-02-07T17:28:31.722Z,-1.53
2018-02-07T17:29:32.299Z,-1.52
2018-02-07T17:30:32.173Z,-1.5
2018-02-07T17:31:32.363Z,-1.53
2018-02-07T17:32:32.637Z,-1.53
2018-02-07T17:33:32.668Z,-1.56
2018-02-07T17:34:32.428Z,-1.71
2018-02-07T17:35:32.639Z,-1.58
2018-02-07T17:36:33.137Z,-1.7
2018-02-07T17:37:32.810Z,-1.71
2018-02-07T17:38:33.115Z,-1.78
2018-02-07T17:39:33.458Z,-1.7
2018-02-07T17:40:33.617Z,-1.78
2018-02-07T17:41:33.791Z,-1.74
2018-02-07T17:42:34.582Z,-1.79
2018-02-07T17:43:34.460Z,-1.86
2018-02-07T17:44:34.060Z,-1.82
2018-02-07T17:45:34.177Z,-1.88
2018-02-07T17:46:34.175Z,-1.85
2018-02-07T17:47:35.027Z,-1.79
2018-02-07T17:48:36.054Z,-1.86
2018-02-07T17:49:35.114Z,-1.84
2018-02-07T17:50:34.887Z,-1.82
2018-02-07T17:51:34.919Z,-1.82
2018-02-07T17:52:34.994Z,-1.79
2018-02-07T17:53:35.260Z,-1.79
2018-02-07T17:54:34.704Z,-1.81
2018-02-07T17:55:35.355Z,-1.79
2018-02-07T17:56:34.761Z,-1.82
2018-02-07T17:57:35.399Z,-1.91
2018-02-07T17:58:35.041Z,-1.84
2018-02-07T17:59:35.575Z,-1.91
2018-02-07T18:00:35.049Z,-1.89
2018-02-07T18:01:35.300Z,-1.84
2018-02-07T18:02:35.927Z,-1.78
2018-02-07T18:03:35.529Z,-1.79
2018-02-07T18:04:35.854Z,-1.88
2018-02-07T18:05:35.597Z,-1.91
2018-02-07T18:06:35.979Z,-1.88
2018-02-07T18:07:36.026Z,-1.94
2018-02-07T18:08:35.861Z,-1.94
2018-02-07T18:09:35.656Z,-1.92
2018-02-07T18:10:36.383Z,-1.84
2018-02-07T18:11:36.174Z,-1.97
2018-02-07T18:12:36.843Z,-1.91
2018-02-07T18:13:36.512Z,-2.02
2018-02-07T18:14:37.152Z,-2.02
2018-02-07T18:15:36.770Z,-1.99
2018-02-07T18:16:37.276Z,-1.96
2018-02-07T18:17:37.270Z,-2.03
2018-02-07T18:18:37.005Z,-1.97
2018-02-07T18:19:37.445Z,-2
2018-02-07T18:20:37.209Z,-1.94
2018-02-07T18:21:37.873Z,-1.99
2018-02-07T18:22:37.832Z,-2.03
2018-02-07T18:23:38.059Z,-2
2018-02-07T18:24:38.091Z,-1.96
2018-02-07T18:25:37.592Z,-2.03
2018-02-07T18:26:37.355Z,-2.02
2018-02-07T18:27:37.947Z,-2.02
2018-02-07T18:28:37.643Z,-2
2018-02-07T18:29:38.198Z,-1.99
2018-02-07T18:30:38.478Z,-1.97
2018-02-07T18:31:38.428Z,-2.05
2018-02-07T18:32:38.346Z,-1.99
2018-02-07T18:33:38.272Z,-1.99
2018-02-07T18:34:38.536Z,-1.88
2018-02-07T18:35:38.858Z,-1.84
2018-02-07T18:36:39.275Z,-1.84
2018-02-07T18:37:38.875Z,-1.96
2018-02-07T18:38:39.408Z,-1.92
2018-02-07T18:39:39.634Z,-1.96
2018-02-07T18:40:39.383Z,-1.96
2018-02-07T18:41:39.785Z,-1.96
2018-02-07T18:42:39.545Z,-2.02
2018-02-07T18:43:39.646Z,-1.97
2018-02-07T18:44:39.702Z,-2.02
2018-02-07T18:45:40.344Z,-2.06
2018-02-07T18:46:40.839Z,-2.09
2018-02-07T18:47:40.801Z,-2.02
2018-02-07T18:48:41.213Z,-2.02
2018-02-07T18:49:41.225Z,-2.09
2018-02-07T18:50:42.224Z,-2.17
2018-02-07T18:51:41.542Z,-2.24
2018-02-07T18:52:41.907Z,-2.24
2018-02-07T18:53:42.098Z,-2.12
2018-02-07T18:54:41.869Z,-2.3
2018-02-07T18:55:42.192Z,-2.23
2018-02-07T18:56:42.234Z,-2.2
2018-02-07T18:57:41.907Z,-2.21
2018-02-07T18:58:41.934Z,-2.32
2018-02-07T18:59:41.950Z,-2.3
2018-02-07T19:00:42.009Z,-2.28
2018-02-07T19:01:41.981Z,-2.32
2018-02-07T19:02:42.104Z,-2.37
2018-02-07T19:03:41.753Z,-2.37
2018-02-07T19:04:42.421Z,-2.4
2018-02-07T19:05:42.877Z,-2.4
2018-02-07T19:06:42.603Z,-2.42
2018-02-07T19:07:43.342Z,-2.39
2018-02-07T19:08:43.286Z,-2.4
2018-02-07T19:09:43.696Z,-2.37
2018-02-07T19:10:43.515Z,-2.39
2018-02-07T19:11:43.879Z,-2.44
2018-02-07T19:12:43.695Z,-2.47
2018-02-07T19:13:43.908Z,-2.43
2018-02-07T19:14:43.954Z,-2.47
2018-02-07T19:15:43.703Z,-2.57
2018-02-07T19:16:43.736Z,-2.61
2018-02-07T19:17:44.024Z,-2.6
2018-02-07T19:18:44.425Z,-2.64
2018-02-07T19:19:44.354Z,-2.6
2018-02-07T19:20:44.530Z,-2.64
2018-02-07T19:21:44.713Z,-2.6
2018-02-07T19:22:45.086Z,-2.53
2018-02-07T19:23:45.514Z,-2.57
2018-02-07T19:24:45.168Z,-2.47
2018-02-07T19:25:45.132Z,-2.58
2018-02-07T19:26:45.781Z,-2.55
2018-02-07T19:27:46.114Z,-2.49
2018-02-07T19:28:45.004Z,-2.54
2018-02-07T19:29:45.331Z,-2.49
2018-02-07T19:30:45.274Z,-2.55
2018-02-07T19:31:45.110Z,-2.58
2018-02-07T19:32:44.969Z,-2.57
2018-02-07T19:33:45.117Z,-2.4
2018-02-07T19:34:45.446Z,-2.42
2018-02-07T19:35:45.585Z,-2.46
2018-02-07T19:36:45.237Z,-2.49
2018-02-07T19:37:45.826Z,-2.42
2018-02-07T19:38:45.438Z,-2.57
2018-02-07T19:39:46.409Z,-2.58
2018-02-07T19:40:45.490Z,-2.6
2018-02-07T19:41:45.405Z,-2.55
2018-02-07T19:42:45.570Z,-2.58
2018-02-07T19:43:46.109Z,-2.47
2018-02-07T19:44:45.715Z,-2.54
2018-02-07T19:45:45.582Z,-2.58
2018-02-07T19:46:45.916Z,-2.57
2018-02-07T19:47:46.385Z,-2.54
2018-02-07T19:48:46.649Z,-2.61
2018-02-07T19:49:46.474Z,-2.64
2018-02-07T19:50:46.390Z,-2.65
2018-02-07T19:51:46.691Z,-2.65
2018-02-07T19:52:47.395Z,-2.64
2018-02-07T19:53:46.855Z,-2.64
2018-02-07T19:54:46.585Z,-2.7
2018-02-07T19:55:46.848Z,-2.62
2018-02-07T19:56:46.724Z,-2.67
2018-02-07T19:57:46.873Z,-2.67
2018-02-07T19:58:47.248Z,-2.64
2018-02-07T19:59:48.212Z,-2.76
2018-02-07T20:00:47.996Z,-2.86
2018-02-07T20:01:48.073Z,-2.81
2018-02-07T20:02:48.156Z,-2.96
2018-02-07T20:03:48.035Z,-2.91
2018-02-07T20:04:47.786Z,-2.91
2018-02-07T20:05:47.827Z,-2.94
2018-02-07T20:06:48.594Z,-3.04
2018-02-07T20:07:48.219Z,-3.06
2018-02-07T20:08:47.549Z,-3.04
2018-02-07T20:09:48.413Z,-3.11
2018-02-07T20:10:48.511Z,-3.06
2018-02-07T20:11:48.164Z,-3.21
2018-02-07T20:12:48.199Z,-3.15
2018-02-07T20:13:48.489Z,-3.15
2018-02-07T20:14:48.599Z,-3.11
2018-02-07T20:15:48.501Z,-3.22
2018-02-07T20:16:48.938Z,-3.19
2018-02-07T20:17:48.545Z,-3.19
2018-02-07T20:18:48.823Z,-3.19
2018-02-07T20:19:49.164Z,-3.21
2018-02-07T20:20:50.050Z,-3.22
2018-02-07T20:21:49.646Z,-3.21
2018-02-07T20:22:48.966Z,-3.14
2018-02-07T20:23:49.468Z,-3.21
2018-02-07T20:24:49.823Z,-3.21
2018-02-07T20:25:49.779Z,-3.18
2018-02-07T20:26:50.168Z,-3.17
2018-02-07T20:27:49.974Z,-3.36
2018-02-07T20:28:50.078Z,-3.38
2018-02-07T20:29:50.169Z,-3.35
2018-02-07T20:30:50.416Z,-3.3
2018-02-07T20:31:51.192Z,-3.39
2018-02-07T20:32:51.381Z,-3.38
2018-02-07T20:33:50.823Z,-3.4
2018-02-07T20:34:50.542Z,-3.4
2018-02-07T20:35:51.260Z,-3.43
2018-02-07T20:36:50.807Z,-3.38
2018-02-07T20:37:51.039Z,-3.43
2018-02-07T20:38:51.624Z,-3.43
2018-02-07T20:39:51.710Z,-3.39
2018-02-07T20:40:51.123Z,-3.36
2018-02-07T20:41:51.308Z,-3.39
2018-02-07T20:42:51.829Z,-3.45
2018-02-07T20:43:51.370Z,-3.36
2018-02-07T20:44:52.425Z,-3.36
2018-02-07T20:45:52.315Z,-3.33
2018-02-07T20:46:52.177Z,-3.32
2018-02-07T20:47:52.592Z,-3.35
2018-02-07T20:48:52.612Z,-3.39
2018-02-07T20:49:52.837Z,-3.35
2018-02-07T20:50:52.807Z,-3.35
2018-02-07T20:51:53.291Z,-3.42
2018-02-07T20:52:53.416Z,-3.4
2018-02-07T20:53:53.323Z,-3.47
2018-02-07T20:54:53.806Z,-3.43
2018-02-07T20:55:54.093Z,-3.38
2018-02-07T20:56:54.105Z,-3.43
2018-02-07T20:57:54.118Z,-3.43
2018-02-07T20:58:54.109Z,-3.45
2018-02-07T20:59:54.626Z,-3.47
2018-02-07T21:00:54.813Z,-3.45
2018-02-07T21:01:54.885Z,-3.43
2018-02-07T21:02:55.517Z,-3.42
2018-02-07T21:03:55.186Z,-3.39
2018-02-07T21:04:54.899Z,-3.36
2018-02-07T21:05:55.328Z,-3.3
2018-02-07T21:06:55.058Z,-3.14
2018-02-07T21:07:55.727Z,-3.22
2018-02-07T21:08:55.265Z,-3.09
2018-02-07T21:09:55.512Z,-3.19
2018-02-07T21:10:55.851Z,-3.21
2018-02-07T21:11:55.583Z,-3.21
2018-02-07T21:12:55.985Z,-3.22
2018-02-07T21:13:55.645Z,-3.3
2018-02-07T21:14:55.657Z,-3.3
2018-02-07T21:15:55.657Z,-3.38
2018-02-07T21:16:56.253Z,-3.36
2018-02-07T21:17:56.248Z,-3.42
2018-02-07T21:18:55.754Z,-3.48
2018-02-07T21:19:55.809Z,-3.38
2018-02-07T21:20:56.181Z,-3.48
2018-02-07T21:21:55.864Z,-3.5
2018-02-07T21:22:56.169Z,-3.58
2018-02-07T21:23:56.313Z,-3.6
2018-02-07T21:24:56.486Z,-3.54
2018-02-07T21:25:56.880Z,-3.48
2018-02-07T21:26:57.133Z,-3.45
2018-02-07T21:27:56.387Z,-3.45
2018-02-07T21:28:56.614Z,-3.56
2018-02-07T21:29:56.888Z,-3.45
2018-02-07T21:30:57.354Z,-3.56
2018-02-07T21:31:57.381Z,-3.57
2018-02-07T21:32:57.433Z,-3.63
2018-02-07T21:33:57.663Z,-3.63
2018-02-07T21:34:57.882Z,-3.63
2018-02-07T21:35:57.883Z,-3.72
2018-02-07T21:36:57.961Z,-3.72
2018-02-07T21:37:57.498Z,-3.76
2018-02-07T21:38:58.127Z,-3.87
2018-02-07T21:39:58.557Z,-3.82
2018-02-07T21:40:58.198Z,-3.91
2018-02-07T21:41:57.860Z,-3.91
2018-02-07T21:42:57.760Z,-3.75
2018-02-07T21:43:58.042Z,-3.86
2018-02-07T21:44:57.847Z,-3.87
2018-02-07T21:45:58.288Z,-3.88
2018-02-07T21:46:58.261Z,-3.91
2018-02-07T21:47:58.246Z,-3.83
2018-02-07T21:48:58.004Z,-3.9
2018-02-07T21:49:58.232Z,-3.86
2018-02-07T21:50:58.403Z,-3.91
2018-02-07T21:51:58.998Z,-3.88
2018-02-07T21:52:58.497Z,-3.88
2018-02-07T21:53:58.856Z,-3.9
2018-02-07T21:54:58.875Z,-3.88
2018-02-07T21:55:59.566Z,-3.86
2018-02-07T21:57:00.335Z,-3.86
2018-02-07T21:58:01.001Z,-3.88